Time;durP1;ratioP1;P1;durP2;ratioP2;P2;SDS_P1;SDS_P2;PMS_P1;PMS_P2;Temp;Humidity;BMP_temperature;BMP_pressure;BME280_temperature;BME280_humidity;BME280_pressure;Samples;Min_cycle;Max_cycle;Signal;HPM_P1;HPM_P2
2023/08/08 00:01:42;;;;;;;3.10;2.90;;;13.10;99.90;;;;;;5047517;28;20452;-66
2023/08/08 00:04:09;;;;;;;3.20;3.00;;;13.10;99.90;;;;;;5047890;28;20465;-67
2023/08/08 00:06:36;;;;;;;3.87;3.53;;;13.10;99.90;;;;;;5047254;28;20460;-66
2023/08/08 00:09:04;;;;;;;5.30;3.70;;;13.20;99.90;;;;;;5047787;28;20554;-67
2023/08/08 00:11:31;;;;;;;4.00;3.47;;;13.20;99.90;;;;;;5047776;28;20583;-66
2023/08/08 00:13:59;;;;;;;3.40;3.10;;;13.20;99.90;;;;;;5046275;28;20455;-66
2023/08/08 00:16:26;;;;;;;3.27;3.03;;;13.20;99.90;;;;;;5047168;28;21027;-66
2023/08/08 00:18:54;;;;;;;2.87;2.67;;;13.20;99.90;;;;;;5047575;28;21063;-67
2023/08/08 00:21:21;;;;;;;3.50;3.20;;;13.20;99.90;;;;;;5047889;28;20446;-66
2023/08/08 00:23:48;;;;;;;20.13;4.57;;;13.30;99.90;;;;;;5047524;28;20575;-66
2023/08/08 00:26:15;;;;;;;3.20;3.00;;;13.20;99.90;;;;;;5047080;28;20457;-67
2023/08/08 00:28:41;;;;;;;5.17;3.67;;;13.20;99.90;;;;;;5047664;28;20476;-66
2023/08/08 00:31:10;;;;;;;3.40;3.20;;;13.20;99.90;;;;;;5047687;28;21028;-67
2023/08/08 00:33:36;;;;;;;4.07;3.73;;;13.20;99.90;;;;;;5047581;28;20454;-66
2023/08/08 00:36:03;;;;;;;3.40;3.10;;;13.20;99.90;;;;;;5046657;28;20835;-67
2023/08/08 00:38:30;;;;;;;5.47;4.10;;;13.20;99.90;;;;;;5047491;28;20956;-67
2023/08/08 00:40:57;;;;;;;3.80;3.50;;;13.20;99.90;;;;;;5048316;28;20451;-66
2023/08/08 00:43:24;;;;;;;3.77;3.53;;;13.20;99.90;;;;;;5051217;28;20451;-67
2023/08/08 00:45:51;;;;;;;3.83;3.53;;;13.20;99.90;;;;;;5051049;28;20450;-67
2023/08/08 00:48:20;;;;;;;6.93;3.87;;;13.20;99.90;;;;;;5050974;28;21149;-66
2023/08/08 00:50:49;;;;;;;4.63;4.30;;;13.20;99.90;;;;;;5051006;28;20491;-66
2023/08/08 00:53:16;;;;;;;4.43;3.40;;;13.20;99.90;;;;;;5051148;28;21207;-66
2023/08/08 00:55:43;;;;;;;3.73;3.43;;;13.20;99.90;;;;;;5051136;28;20451;-66
2023/08/08 00:58:10;;;;;;;4.83;3.63;;;13.20;99.90;;;;;;5050283;28;20550;-67
2023/08/08 01:00:37;;;;;;;3.20;3.00;;;13.20;99.90;;;;;;5050988;28;20526;-66
2023/08/08 01:03:05;;;;;;;4.73;3.50;;;13.20;99.90;;;;;;5050868;28;20954;-66
2023/08/08 01:05:39;;;;;;;3.50;3.20;;;13.20;99.90;;;;;;5050754;28;20440;-66
2023/08/08 01:08:08;;;;;;;4.00;3.70;;;13.10;99.90;;;;;;5050147;28;20554;-66
2023/08/08 01:10:38;;;;;;;3.10;2.80;;;13.20;99.90;;;;;;5050979;28;20492;-66
2023/08/08 01:13:07;;;;;;;3.33;3.03;;;13.10;99.90;;;;;;5050654;28;20534;-67
2023/08/08 01:15:36;;;;;;;3.73;3.33;;;13.10;99.90;;;;;;5050003;28;21163;-66
2023/08/08 01:18:05;;;;;;;4.27;3.63;;;13.10;99.90;;;;;;5050025;28;20475;-66
2023/08/08 01:20:34;;;;;;;3.20;2.90;;;13.20;99.90;;;;;;5050615;28;20542;-66
2023/08/08 01:23:10;;;;;;;3.20;2.90;;;13.20;99.90;;;;;;5050563;28;20965;-66
2023/08/08 01:25:39;;;;;;;4.13;3.27;;;13.20;99.90;;;;;;5050486;28;20813;-66
2023/08/08 01:28:07;;;;;;;3.80;3.50;;;13.10;99.90;;;;;;5049526;28;20559;-66
2023/08/08 01:30:34;;;;;;;4.10;2.90;;;13.20;99.90;;;;;;5050480;28;20567;-66
2023/08/08 01:33:02;;;;;;;4.47;4.07;;;13.10;99.90;;;;;;5050455;28;20452;-67
2023/08/08 01:35:31;;;;;;;3.53;3.23;;;13.10;99.90;;;;;;5050679;28;20826;-66
2023/08/08 01:38:06;;;;;;;3.70;3.20;;;13.10;99.90;;;;;;5049663;28;20480;-66
2023/08/08 01:40:34;;;;;;;4.10;3.80;;;13.10;99.90;;;;;;5050375;28;20542;-66
2023/08/08 01:43:04;;;;;;;3.53;3.17;;;13.10;99.90;;;;;;5050482;28;21289;-66
2023/08/08 01:45:31;;;;;;;3.77;3.47;;;13.10;99.90;;;;;;5049973;28;20896;-66
2023/08/08 01:47:58;;;;;;;4.17;3.30;;;13.10;99.90;;;;;;5009024;28;20479;-66
2023/08/08 01:50:25;;;;;;;4.30;4.00;;;13.10;99.90;;;;;;5010171;28;20453;-66
2023/08/08 01:52:52;;;;;;;3.10;2.90;;;13.10;99.90;;;;;;5009219;28;20450;-66
2023/08/08 01:55:19;;;;;;;3.13;2.93;;;13.10;99.90;;;;;;5010158;28;20446;-66
2023/08/08 01:57:46;;;;;;;4.47;4.07;;;13.00;99.90;;;;;;5009433;28;20455;-66
2023/08/08 02:00:14;;;;;;;3.40;3.07;;;13.10;99.90;;;;;;5012707;28;20446;-66
2023/08/08 02:02:41;;;;;;;3.17;2.87;;;13.00;99.90;;;;;;5036247;28;20912;-66
2023/08/08 02:05:08;;;;;;;8.00;2.77;;;13.00;99.90;;;;;;5049623;28;20955;-66
2023/08/08 02:07:35;;;;;;;3.30;2.90;;;13.00;99.90;;;;;;5040654;28;20539;-66
2023/08/08 02:10:02;;;;;;;2.90;2.70;;;13.00;99.90;;;;;;5049786;28;20486;-66
2023/08/08 02:12:30;;;;;;;3.53;3.23;;;12.90;99.90;;;;;;5049646;28;20523;-66
2023/08/08 02:14:56;;;;;;;4.33;3.20;;;12.90;99.90;;;;;;5043839;28;20827;-66
2023/08/08 02:17:25;;;;;;;3.73;3.50;;;12.90;99.90;;;;;;5044591;28;21122;-66
2023/08/08 02:19:52;;;;;;;5.13;2.87;;;12.80;99.90;;;;;;5049533;28;20583;-66
2023/08/08 02:22:19;;;;;;;5.00;3.47;;;12.80;99.90;;;;;;5049587;28;20542;-66
2023/08/08 02:24:46;;;;;;;3.20;3.03;;;12.80;99.90;;;;;;5049445;28;20974;-67
2023/08/08 02:27:14;;;;;;;4.23;3.50;;;12.80;99.90;;;;;;5048648;28;20454;-66
2023/08/08 02:29:41;;;;;;;5.00;3.57;;;12.70;99.90;;;;;;5047403;28;20497;-66
2023/08/08 02:32:08;;;;;;;5.13;3.80;;;12.70;99.90;;;;;;5043177;28;20504;-66
2023/08/08 02:34:36;;;;;;;2.73;2.50;;;12.60;99.90;;;;;;5049165;28;20539;-66
2023/08/08 02:37:03;;;;;;;3.43;3.17;;;12.60;99.90;;;;;;5048497;28;20447;-66
2023/08/08 02:39:30;;;;;;;5.33;3.30;;;12.60;99.90;;;;;;5048928;28;21091;-66
2023/08/08 02:41:57;;;;;;;4.20;3.80;;;12.50;99.90;;;;;;5049103;28;20541;-66
2023/08/08 02:44:24;;;;;;;3.50;3.30;;;12.50;99.90;;;;;;5048822;28;20542;-66
2023/08/08 02:46:51;;;;;;;4.50;4.10;;;12.50;99.90;;;;;;5048248;28;20455;-66
2023/08/08 02:49:17;;;;;;;3.50;3.20;;;12.40;99.90;;;;;;5048957;28;20478;-67
2023/08/08 02:51:46;;;;;;;4.30;3.13;;;12.40;99.90;;;;;;5046373;28;20495;-66
2023/08/08 02:54:12;;;;;;;3.27;3.07;;;12.40;99.90;;;;;;5043379;28;20450;-66
2023/08/08 02:56:39;;;;;;;3.47;3.27;;;12.40;99.90;;;;;;5048138;28;20510;-66
2023/08/08 02:59:06;;;;;;;3.73;3.37;;;12.30;99.90;;;;;;5048828;28;20471;-66
2023/08/08 03:01:37;;;;;;;3.63;3.40;;;12.30;99.90;;;;;;5048924;28;20453;-66
2023/08/08 03:04:04;;;;;;;4.00;3.70;;;12.30;99.90;;;;;;5048602;28;20451;-66
2023/08/08 03:06:31;;;;;;;3.57;3.27;;;12.20;99.90;;;;;;5047837;28;20909;-66
2023/08/08 03:08:59;;;;;;;3.47;3.20;;;12.20;99.90;;;;;;5048562;28;20475;-66
2023/08/08 03:11:26;;;;;;;3.10;2.90;;;12.20;99.90;;;;;;5048443;28;20491;-66
2023/08/08 03:13:53;;;;;;;3.50;3.30;;;12.10;99.90;;;;;;5046819;28;20998;-66
2023/08/08 03:16:20;;;;;;;3.27;3.07;;;12.10;99.90;;;;;;5047606;28;20483;-66
2023/08/08 03:18:47;;;;;;;3.60;3.30;;;12.10;99.90;;;;;;5048374;28;20474;-66
2023/08/08 03:21:13;;;;;;;5.23;3.10;;;12.10;99.90;;;;;;5048477;28;20451;-66
2023/08/08 03:23:40;;;;;;;3.37;3.17;;;12.10;99.90;;;;;;5048386;28;21183;-66
2023/08/08 03:26:08;;;;;;;3.30;3.00;;;12.10;99.90;;;;;;5047684;28;20455;-66
2023/08/08 03:28:35;;;;;;;3.47;3.17;;;12.00;99.90;;;;;;5048442;28;20474;-66
2023/08/08 03:31:03;;;;;;;3.53;3.23;;;12.00;99.90;;;;;;5048126;28;20458;-66
2023/08/08 03:33:29;;;;;;;4.07;3.77;;;12.00;99.90;;;;;;5048223;28;20542;-66
2023/08/08 03:35:56;;;;;;;6.80;2.80;;;12.00;99.90;;;;;;5047511;28;20444;-67
2023/08/08 03:38:23;;;;;;;4.53;3.17;;;12.00;99.90;;;;;;5048002;28;21177;-66
2023/08/08 03:40:50;;;;;;;3.50;3.13;;;12.00;99.90;;;;;;5045128;28;20461;-66
2023/08/08 03:43:18;;;;;;;4.17;3.80;;;12.00;99.90;;;;;;5048089;28;20978;-66
2023/08/08 03:45:46;;;;;;;9.63;3.93;;;12.00;99.90;;;;;;5045630;28;20452;-66
2023/08/08 03:48:13;;;;;;;3.43;3.23;;;12.00;99.90;;;;;;5041963;28;21058;-66
2023/08/08 03:50:40;;;;;;;4.30;3.40;;;12.00;99.90;;;;;;5048279;28;20458;-66
2023/08/08 03:53:07;;;;;;;4.90;3.23;;;12.00;99.90;;;;;;5048215;28;21026;-66
2023/08/08 03:55:34;;;;;;;3.90;3.57;;;12.00;99.90;;;;;;5048176;28;20867;-66
2023/08/08 03:58:00;;;;;;;4.63;4.23;;;12.00;99.90;;;;;;5046850;28;20481;-66
2023/08/08 04:00:28;;;;;;;4.60;3.00;;;12.10;99.90;;;;;;5048002;28;20541;-66
2023/08/08 04:02:55;;;;;;;3.10;2.90;;;12.10;99.90;;;;;;5047997;28;20529;-66
2023/08/08 04:05:22;;;;;;;6.70;3.73;;;12.10;99.90;;;;;;5047241;28;20451;-66
2023/08/08 04:07:49;;;;;;;3.67;3.47;;;12.10;99.90;;;;;;5047077;28;20461;-66
2023/08/08 04:10:16;;;;;;;6.13;3.47;;;12.10;99.90;;;;;;5047734;28;21150;-66
2023/08/08 04:12:43;;;;;;;3.37;3.07;;;12.10;99.90;;;;;;5047724;28;20590;-66
2023/08/08 04:15:10;;;;;;;4.30;3.27;;;12.00;99.90;;;;;;5046146;28;20470;-66
2023/08/08 04:17:38;;;;;;;5.57;3.53;;;12.00;99.90;;;;;;5050487;28;20545;-66
2023/08/08 04:20:06;;;;;;;3.83;3.30;;;12.00;99.90;;;;;;5051797;28;20876;-66
2023/08/08 04:22:33;;;;;;;3.73;3.20;;;12.00;99.90;;;;;;5051686;28;20455;-66
2023/08/08 04:25:00;;;;;;;3.17;2.90;;;11.90;99.90;;;;;;5051524;28;20815;-66
2023/08/08 04:27:27;;;;;;;3.30;3.10;;;11.90;99.90;;;;;;5050836;28;20447;-66
2023/08/08 04:29:54;;;;;;;2.90;2.80;;;11.90;99.90;;;;;;5051374;28;20491;-66
2023/08/08 04:32:20;;;;;;;5.17;3.13;;;11.80;99.90;;;;;;5051342;28;20489;-66
2023/08/08 04:34:49;;;;;;;10.30;5.20;;;11.80;99.90;;;;;;5051618;28;20458;-66
2023/08/08 04:37:15;;;;;;;3.33;2.87;;;11.70;99.90;;;;;;5050844;28;20482;-66
2023/08/08 04:39:42;;;;;;;3.40;2.97;;;11.70;99.90;;;;;;5051463;28;20562;-67
2023/08/08 04:42:09;;;;;;;3.47;3.17;;;11.70;99.90;;;;;;5051473;28;20451;-66
2023/08/08 04:44:36;;;;;;;5.10;3.30;;;11.70;99.90;;;;;;5051192;28;20461;-66
2023/08/08 04:47:03;;;;;;;3.60;2.97;;;11.60;99.90;;;;;;5050660;28;20571;-66
2023/08/08 04:49:30;;;;;;;3.00;2.80;;;11.60;99.90;;;;;;5051213;28;20912;-66
2023/08/08 04:51:58;;;;;;;3.10;2.90;;;11.60;99.90;;;;;;5050882;28;20489;-66
2023/08/08 04:54:25;;;;;;;6.63;3.77;;;11.60;99.90;;;;;;5050902;28;20461;-66
2023/08/08 04:56:51;;;;;;;3.70;3.40;;;11.60;99.90;;;;;;5050212;28;20461;-66
2023/08/08 04:59:18;;;;;;;4.30;2.90;;;11.50;99.90;;;;;;5050779;28;20471;-66
2023/08/08 05:01:45;;;;;;;3.07;2.87;;;11.50;99.90;;;;;;5051049;28;20537;-66
2023/08/08 05:04:12;;;;;;;3.23;3.03;;;11.50;99.90;;;;;;5051119;28;20453;-66
2023/08/08 05:06:39;;;;;;;3.30;3.10;;;11.50;99.90;;;;;;5050550;28;20837;-66
2023/08/08 05:09:09;;;;;;;3.47;2.80;;;11.50;99.90;;;;;;5050676;28;20469;-66
2023/08/08 05:11:36;;;;;;;3.17;2.87;;;11.50;99.90;;;;;;5050501;28;20477;-66
2023/08/08 05:14:03;;;;;;;3.27;2.97;;;11.50;99.90;;;;;;5048987;28;20461;-66
2023/08/08 05:16:29;;;;;;;4.10;3.90;;;11.50;99.90;;;;;;5049697;28;20458;-66
2023/08/08 05:18:56;;;;;;;2.80;2.60;;;11.50;99.90;;;;;;5050563;28;20443;-66
2023/08/08 05:21:24;;;;;;;3.07;2.87;;;11.50;99.90;;;;;;5050383;28;20906;-66
2023/08/08 05:23:50;;;;;;;3.20;2.90;;;11.50;99.90;;;;;;5050028;28;20455;-66
2023/08/08 05:26:19;;;;;;;3.77;3.57;;;11.50;99.90;;;;;;5049753;28;20737;-67
2023/08/08 05:28:45;;;;;;;3.50;3.20;;;11.50;99.90;;;;;;5050401;28;20466;-66
2023/08/08 05:31:12;;;;;;;3.00;2.80;;;11.50;99.90;;;;;;5075349;22;20516;-64
2023/08/08 05:33:39;;;;;;;3.40;3.10;;;11.60;99.90;;;;;;5059829;28;20500;-64
2023/08/08 05:36:06;;;;;;;3.10;2.90;;;11.60;99.90;;;;;;5062678;28;20456;-64
2023/08/08 05:38:33;;;;;;;3.53;3.33;;;11.60;99.90;;;;;;5064957;28;20462;-64
2023/08/08 05:40:59;;;;;;;4.50;3.00;;;11.70;99.90;;;;;;5052999;28;20467;-64
2023/08/08 05:43:28;;;;;;;8.00;2.90;;;11.70;99.90;;;;;;5049962;28;20542;-64
2023/08/08 05:45:55;;;;;;;3.23;2.90;;;11.90;99.90;;;;;;5043562;28;20459;-64
2023/08/08 05:48:22;;;;;;;3.33;2.77;;;12.00;99.90;;;;;;5044751;28;20540;-66
2023/08/08 05:50:48;;;;;;;2.70;2.47;;;12.10;99.90;;;;;;5049980;28;20894;-64
2023/08/08 05:53:15;;;;;;;3.00;2.80;;;12.20;99.90;;;;;;5050060;28;20487;-64
2023/08/08 05:55:42;;;;;;;3.70;2.67;;;12.40;99.90;;;;;;5049682;28;20465;-64
2023/08/08 05:58:09;;;;;;;5.40;3.43;;;12.50;99.90;;;;;;5049331;28;20451;-64
2023/08/08 06:00:38;;;;;;;2.17;2.07;;;12.70;99.90;;;;;;5044383;28;20563;-64
2023/08/08 06:03:06;;;;;;;3.57;3.00;;;12.90;99.90;;;;;;5043416;28;20452;-64
2023/08/08 06:05:33;;;;;;;2.50;2.40;;;13.10;99.90;;;;;;5049904;28;20484;-64
2023/08/08 06:08:00;;;;;;;2.50;2.30;;;13.20;99.90;;;;;;5049133;28;20538;-64
2023/08/08 06:10:27;;;;;;;2.80;2.40;;;13.40;99.90;;;;;;5049614;28;20914;-63
2023/08/08 06:12:53;;;;;;;2.53;2.33;;;13.60;99.90;;;;;;5049344;28;20493;-64
2023/08/08 06:15:20;;;;;;;2.80;2.27;;;13.70;99.90;;;;;;5049643;28;20539;-64
2023/08/08 06:17:49;;;;;;;2.37;2.10;;;13.90;99.90;;;;;;5049031;28;20539;-64
2023/08/08 06:20:15;;;;;;;2.10;2.00;;;14.10;99.90;;;;;;5049615;28;20472;-64
2023/08/08 06:22:43;;;;;;;3.90;2.60;;;14.30;99.90;;;;;;5049444;28;20498;-64
2023/08/08 06:25:10;;;;;;;4.83;4.40;;;14.40;99.90;;;;;;5049641;28;20924;-64
2023/08/08 06:27:37;;;;;;;4.07;2.70;;;14.60;99.90;;;;;;5038824;28;20481;-64
2023/08/08 06:30:05;;;;;;;3.77;2.03;;;14.80;99.90;;;;;;5049397;28;20480;-64
2023/08/08 06:32:32;;;;;;;2.17;2.07;;;15.00;99.90;;;;;;5049288;28;20574;-64
2023/08/08 06:35:00;;;;;;;2.80;2.60;;;15.10;99.90;;;;;;5049280;28;20453;-64
2023/08/08 06:37:27;;;;;;;2.90;2.70;;;15.30;99.90;;;;;;5048303;28;20445;-64
2023/08/08 06:39:54;;;;;;;2.20;2.10;;;15.50;99.90;;;;;;5048385;28;20452;-63
2023/08/08 06:42:21;;;;;;;1.87;1.77;;;15.70;99.90;;;;;;5049078;28;20881;-63
2023/08/08 06:44:48;;;;;;;2.20;1.90;;;15.80;99.90;;;;;;5049177;28;20463;-64
2023/08/08 06:47:15;;;;;;;3.07;2.47;;;15.90;99.90;;;;;;5048475;28;20457;-63
2023/08/08 06:49:42;;;;;;;2.50;2.40;;;16.20;99.90;;;;;;5048723;28;20871;-64
2023/08/08 06:52:10;;;;;;;2.00;1.90;;;16.30;99.90;;;;;;5048862;28;20552;-63
2023/08/08 06:54:37;;;;;;;2.70;2.37;;;16.30;99.90;;;;;;5049012;28;20440;-63
2023/08/08 06:57:04;;;;;;;2.23;2.13;;;16.50;99.90;;;;;;5048124;28;20950;-64
2023/08/08 06:59:31;;;;;;;2.30;2.10;;;16.50;99.90;;;;;;5048599;28;20887;-63
2023/08/08 07:01:58;;;;;;;1.80;1.70;;;16.60;99.90;;;;;;5048701;28;20473;-64
2023/08/08 07:04:25;;;;;;;1.97;1.87;;;16.80;99.90;;;;;;5048701;28;20454;-64
2023/08/08 07:06:51;;;;;;;1.43;1.40;;;17.00;99.90;;;;;;5047837;28;20454;-63
2023/08/08 07:09:21;;;;;;;2.43;2.10;;;17.00;99.90;;;;;;5048620;28;20452;-63
2023/08/08 07:11:47;;;;;;;3.00;1.67;;;17.20;99.90;;;;;;5048723;28;20474;-64
2023/08/08 07:14:14;;;;;;;2.30;1.90;;;17.30;99.90;;;;;;5045783;28;21216;-63
2023/08/08 07:16:41;;;;;;;2.53;2.33;;;17.50;99.90;;;;;;5037835;28;20451;-63
2023/08/08 07:19:08;;;;;;;3.37;1.93;;;17.60;99.90;;;;;;5035740;28;20540;-64
2023/08/08 07:21:35;;;;;;;1.90;1.57;;;17.70;99.90;;;;;;5039728;28;20471;-63
2023/08/08 07:24:02;;;;;;;1.70;1.60;;;17.80;99.90;;;;;;5034558;28;20478;-64
2023/08/08 07:26:31;;;;;;;2.70;1.70;;;17.90;99.90;;;;;;5038667;28;20488;-64
2023/08/08 07:28:57;;;;;;;1.70;1.60;;;18.00;99.90;;;;;;5037755;28;20927;-64
2023/08/08 07:31:24;;;;;;;1.60;1.50;;;18.20;99.90;;;;;;5042130;28;21063;-63
2023/08/08 07:33:51;;;;;;;1.33;1.23;;;18.20;99.90;;;;;;5034255;28;20590;-64
2023/08/08 07:36:18;;;;;;;1.67;1.57;;;18.10;99.90;;;;;;5036789;28;20462;-63
2023/08/08 07:38:45;;;;;;;2.00;1.90;;;18.10;99.90;;;;;;5033886;28;20464;-63
2023/08/08 07:41:12;;;;;;;1.93;1.83;;;18.20;99.90;;;;;;5039572;28;20562;-64
2023/08/08 07:43:40;;;;;;;1.70;1.60;;;18.20;99.90;;;;;;5035318;28;20448;-63
2023/08/08 07:46:07;;;;;;;2.07;1.93;;;18.40;99.90;;;;;;5036998;28;20884;-63
2023/08/08 07:48:33;;;;;;;1.20;1.10;;;18.40;99.90;;;;;;5037458;28;20461;-63
2023/08/08 07:51:00;;;;;;;1.93;1.80;;;18.50;99.90;;;;;;5029763;28;20490;-63
2023/08/08 07:53:27;;;;;;;4.00;1.73;;;18.60;99.90;;;;;;5035112;28;20495;-63
2023/08/08 07:55:54;;;;;;;4.13;1.53;;;18.50;99.90;;;;;;5037144;28;20467;-63
2023/08/08 07:58:25;;;;;;;2.67;1.73;;;18.50;99.90;;;;;;5041738;28;20842;-63
2023/08/08 08:00:53;;;;;;;2.40;1.73;;;18.60;99.90;;;;;;5043048;28;20479;-64
2023/08/08 08:03:20;;;;;;;1.50;1.40;;;18.70;99.90;;;;;;5041682;28;20455;-63
2023/08/08 08:05:47;;;;;;;5.57;1.90;;;18.80;99.90;;;;;;5040323;28;20458;-63
2023/08/08 08:08:14;;;;;;;2.77;1.60;;;18.90;99.90;;;;;;5040842;28;20455;-64
2023/08/08 08:10:41;;;;;;;1.40;1.30;;;19.10;99.90;;;;;;5041673;28;21030;-64
2023/08/08 08:13:08;;;;;;;4.57;2.53;;;19.10;99.90;;;;;;5048893;28;20492;-64
2023/08/08 08:15:34;;;;;;;2.40;2.20;;;19.20;99.90;;;;;;5039946;28;20454;-63
2023/08/08 08:18:03;;;;;;;1.77;1.67;;;19.20;99.90;;;;;;5041929;28;20985;-63
2023/08/08 08:20:30;;;;;;;3.40;1.60;;;19.10;99.80;;;;;;5040015;28;20477;-64
2023/08/08 08:22:56;;;;;;;1.83;1.50;;;19.10;99.80;;;;;;5039150;28;20498;-64
2023/08/08 08:25:23;;;;;;;2.57;1.83;;;19.10;99.90;;;;;;5039081;28;20460;-63
2023/08/08 08:27:50;;;;;;;1.40;1.30;;;19.00;99.40;;;;;;5050620;28;20884;-63
2023/08/08 08:30:18;;;;;;;2.20;1.80;;;18.90;99.90;;;;;;5033299;28;20489;-63
2023/08/08 08:32:45;;;;;;;2.63;1.60;;;18.90;99.20;;;;;;5041441;28;20803;-63
2023/08/08 08:35:13;;;;;;;1.90;1.80;;;18.90;98.40;;;;;;5037731;28;20464;-63
2023/08/08 08:37:40;;;;;;;4.50;3.93;;;18.80;97.80;;;;;;5039767;28;20491;-64
2023/08/08 08:40:09;;;;;;;2.20;2.10;;;18.80;99.00;;;;;;5031850;28;20469;-64
2023/08/08 08:42:36;;;;;;;1.33;1.33;;;18.80;98.20;;;;;;5039423;28;20827;-63
2023/08/08 08:45:04;;;;;;;1.30;1.20;;;18.80;99.10;;;;;;5038349;28;20541;-64
2023/08/08 08:47:32;;;;;;;1.53;1.43;;;18.90;98.70;;;;;;5038240;28;20544;-63
2023/08/08 08:50:01;;;;;;;2.17;1.83;;;18.90;97.80;;;;;;5046815;28;20444;-64
2023/08/08 08:52:30;;;;;;;3.10;2.13;;;19.00;97.90;;;;;;5041993;28;20483;-64
2023/08/08 08:54:57;;;;;;;1.80;1.40;;;19.00;95.60;;;;;;5049805;28;20945;-64
2023/08/08 08:57:25;;;;;;;1.50;1.40;;;19.00;96.70;;;;;;5049107;28;20538;-64
2023/08/08 08:59:51;;;;;;;2.40;1.70;;;19.10;96.60;;;;;;5046633;28;20538;-64
2023/08/08 09:02:19;;;;;;;1.53;1.43;;;19.20;96.00;;;;;;5037891;28;20449;-64
2023/08/08 09:04:46;;;;;;;1.43;1.10;;;19.30;97.20;;;;;;5048706;28;20454;-64
2023/08/08 09:07:15;;;;;;;1.37;1.27;;;19.50;96.60;;;;;;5049097;28;20448;-63
2023/08/08 09:09:44;;;;;;;1.10;1.00;;;19.60;95.50;;;;;;5049607;28;20824;-64
2023/08/08 09:12:12;;;;;;;1.87;1.30;;;19.70;96.20;;;;;;5049535;28;20566;-64
2023/08/08 09:14:42;;;;;;;1.03;1.03;;;19.70;95.00;;;;;;5049547;28;20488;-64
2023/08/08 09:17:15;;;;;;;1.77;1.67;;;19.80;94.40;;;;;;5049384;28;20486;-64
2023/08/08 09:19:44;;;;;;;1.30;1.20;;;19.80;95.40;;;;;;5049881;28;20937;-64
2023/08/08 09:22:12;;;;;;;1.37;1.37;;;19.90;95.40;;;;;;5046683;28;20467;-64
2023/08/08 09:24:40;;;;;;;1.30;1.20;;;20.00;97.10;;;;;;5040172;28;20448;-64
2023/08/08 09:27:09;;;;;;;2.00;1.40;;;20.10;94.20;;;;;;5048557;28;20550;-64
2023/08/08 09:29:36;;;;;;;1.97;1.40;;;20.20;94.40;;;;;;5049418;28;20460;-63
2023/08/08 09:32:04;;;;;;;1.63;1.53;;;20.30;95.20;;;;;;5049253;28;20566;-63
2023/08/08 09:34:31;;;;;;;1.50;1.40;;;20.40;93.70;;;;;;5048940;28;20490;-64
2023/08/08 09:36:59;;;;;;;2.50;1.30;;;20.50;93.90;;;;;;5039784;28;20548;-63
2023/08/08 09:39:26;;;;;;;1.50;1.40;;;20.40;93.90;;;;;;5037515;28;20545;-64
2023/08/08 09:41:53;;;;;;;1.43;1.33;;;20.40;94.20;;;;;;5009773;28;21014;-63
2023/08/08 09:44:26;;;;;;;1.50;1.40;;;20.40;94.70;;;;;;5014821;28;20446;-63
2023/08/08 09:46:53;;;;;;;3.93;1.30;;;20.50;92.50;;;;;;5036782;28;20485;-64
2023/08/08 09:49:22;;;;;;;2.40;1.37;;;20.40;92.60;;;;;;5013829;28;20447;-64
2023/08/08 09:51:49;;;;;;;1.60;1.30;;;20.30;92.90;;;;;;5025571;28;20922;-64
2023/08/08 09:54:17;;;;;;;1.13;0.97;;;20.30;94.50;;;;;;5015245;28;21194;-64
2023/08/08 09:56:44;;;;;;;1.53;1.43;;;20.30;94.60;;;;;;5017903;28;20451;-64
2023/08/08 09:59:12;;;;;;;1.43;1.20;;;20.30;92.20;;;;;;5023012;28;20855;-63
2023/08/08 10:01:41;;;;;;;1.77;1.67;;;20.20;93.70;;;;;;5034065;28;20876;-64
2023/08/08 10:04:08;;;;;;;1.60;1.50;;;20.20;93.60;;;;;;5036607;28;20536;-64
2023/08/08 10:06:35;;;;;;;1.87;1.60;;;20.20;92.60;;;;;;5018826;28;20454;-64
2023/08/08 10:09:03;;;;;;;1.53;1.43;;;20.10;93.40;;;;;;5021415;28;20454;-64
2023/08/08 10:11:32;;;;;;;1.63;0.90;;;20.10;91.40;;;;;;5012315;28;20481;-63
2023/08/08 10:14:00;;;;;;;1.30;1.20;;;20.10;92.10;;;;;;5023372;28;20484;-63
2023/08/08 10:16:27;;;;;;;3.40;1.80;;;20.00;91.30;;;;;;5016034;28;20465;-64
2023/08/08 10:19:00;;;;;;;1.90;1.80;;;20.10;93.80;;;;;;5016779;28;20528;-63
2023/08/08 10:21:28;;;;;;;1.60;1.50;;;20.00;93.00;;;;;;5024732;28;20473;-63
2023/08/08 10:24:03;;;;;;;1.40;1.27;;;20.20;93.70;;;;;;5011458;28;20437;-61
2023/08/08 10:26:30;;;;;;;1.90;1.40;;;20.30;93.70;;;;;;5018968;28;20540;-63
2023/08/08 10:28:58;;;;;;;1.40;1.30;;;20.40;92.80;;;;;;5020478;28;20532;-64
2023/08/08 10:31:25;;;;;;;1.67;1.40;;;20.40;92.20;;;;;;5012600;28;21153;-63
2023/08/08 10:34:04;;;;;;;1.60;1.50;;;20.40;90.70;;;;;;5025055;28;20483;-63
2023/08/08 10:36:50;;;;;;;1.70;1.53;;;20.40;93.00;;;;;;5016047;28;20447;-64
2023/08/08 10:39:18;;;;;;;1.77;1.67;;;20.40;92.20;;;;;;5030682;28;20462;-63
2023/08/08 10:41:47;;;;;;;1.40;1.30;;;20.40;90.90;;;;;;5037603;28;21070;-63
2023/08/08 10:44:14;;;;;;;3.13;1.50;;;20.50;92.80;;;;;;5022466;28;20439;-63
2023/08/08 10:46:42;;;;;;;1.80;1.57;;;20.60;92.20;;;;;;5017833;28;20532;-64
2023/08/08 10:49:14;;;;;;;2.50;1.27;;;20.60;93.60;;;;;;5014953;28;20444;-64
2023/08/08 10:51:46;;;;;;;2.07;1.70;;;20.60;91.40;;;;;;5024835;28;20572;-63
2023/08/08 10:54:15;;;;;;;1.47;1.37;;;20.70;90.10;;;;;;5014141;28;20619;-64
2023/08/08 10:56:49;;;;;;;2.70;1.57;;;20.60;91.30;;;;;;5017529;28;20469;-64
2023/08/08 10:59:18;;;;;;;2.80;1.20;;;20.70;90.50;;;;;;5022589;28;20499;-63
2023/08/08 11:01:50;;;;;;;1.60;1.50;;;20.70;91.30;;;;;;5011713;28;20469;-63
2023/08/08 11:04:20;;;;;;;2.50;1.70;;;20.70;93.00;;;;;;5020902;28;20478;-64
2023/08/08 11:06:49;;;;;;;2.00;1.53;;;20.80;91.70;;;;;;5017313;28;20535;-64
2023/08/08 11:09:17;;;;;;;2.80;2.53;;;20.80;90.20;;;;;;5013145;28;20886;-64
2023/08/08 11:11:45;;;;;;;1.87;1.60;;;20.80;88.90;;;;;;5024314;28;20474;-64
2023/08/08 11:14:13;;;;;;;1.87;1.73;;;20.80;91.50;;;;;;5013710;28;20516;-64
2023/08/08 11:16:41;;;;;;;1.50;1.40;;;20.80;91.90;;;;;;5017231;28;20461;-63
2023/08/08 11:19:08;;;;;;;2.10;1.90;;;20.90;90.30;;;;;;5021136;28;20450;-64
2023/08/08 11:21:38;;;;;;;1.40;1.20;;;21.00;92.50;;;;;;5010928;28;20469;-64
2023/08/08 11:24:07;;;;;;;1.97;1.47;;;21.10;91.00;;;;;;5035051;28;20555;-64
2023/08/08 11:26:34;;;;;;;1.50;1.40;;;21.10;92.10;;;;;;5034246;28;20525;-63
2023/08/08 11:29:02;;;;;;;1.83;1.30;;;21.20;91.60;;;;;;5038911;28;20990;-63
2023/08/08 11:31:30;;;;;;;1.53;1.43;;;21.20;90.70;;;;;;5038091;28;20481;-64
2023/08/08 11:33:59;;;;;;;2.33;1.90;;;21.30;89.90;;;;;;5011352;28;21022;-64
2023/08/08 11:36:27;;;;;;;2.23;1.90;;;21.40;91.00;;;;;;5018442;28;20537;-64
2023/08/08 11:38:56;;;;;;;1.93;1.70;;;21.40;91.40;;;;;;5020271;28;20461;-64
2023/08/08 11:41:25;;;;;;;2.63;1.37;;;21.40;90.60;;;;;;5038235;28;20539;-64
2023/08/08 11:43:54;;;;;;;1.77;1.37;;;21.30;87.50;;;;;;5035465;28;20453;-63
2023/08/08 11:46:25;;;;;;;1.97;1.87;;;21.20;89.10;;;;;;5034682;28;20560;-64
2023/08/08 11:48:52;;;;;;;1.67;1.50;;;21.10;85.10;;;;;;5015786;28;20800;-64
2023/08/08 11:51:18;;;;;;;1.70;1.60;;;21.00;88.20;;;;;;5024620;28;20493;-64
2023/08/08 11:53:52;;;;;;;2.73;2.53;;;21.00;90.30;;;;;;5009992;28;20562;-64
2023/08/08 11:56:22;;;;;;;1.70;1.40;;;21.10;88.40;;;;;;5018814;28;20448;-64
2023/08/08 11:58:51;;;;;;;2.57;1.70;;;21.00;84.80;;;;;;5037551;28;20454;-64
2023/08/08 12:01:21;;;;;;;1.70;1.60;;;21.10;88.80;;;;;;5031337;28;20473;-64
2023/08/08 12:03:48;;;;;;;1.93;1.80;;;21.30;89.50;;;;;;5010528;28;20528;-64
2023/08/08 12:06:15;;;;;;;1.63;1.53;;;21.40;90.20;;;;;;5019540;28;20442;-64
2023/08/08 12:08:44;;;;;;;2.10;1.50;;;21.50;86.80;;;;;;5017324;28;20441;-64
2023/08/08 12:11:11;;;;;;;1.30;1.30;;;21.60;89.50;;;;;;5013312;28;20471;-64
2023/08/08 12:13:41;;;;;;;1.70;1.60;;;21.70;88.40;;;;;;5023465;28;20523;-64
2023/08/08 12:16:09;;;;;;;1.67;1.50;;;21.80;91.50;;;;;;5010317;28;20457;-64
2023/08/08 12:18:37;;;;;;;2.10;2.00;;;21.90;90.50;;;;;;5017799;28;20499;-64
2023/08/08 12:21:04;;;;;;;1.60;1.50;;;21.90;90.70;;;;;;5030586;28;20994;-64
2023/08/08 12:23:32;;;;;;;1.70;1.60;;;21.90;90.70;;;;;;5037227;28;20456;-64
2023/08/08 12:25:59;;;;;;;1.60;1.50;;;21.90;90.20;;;;;;5025090;28;20877;-65
2023/08/08 12:28:26;;;;;;;1.40;1.30;;;21.90;90.20;;;;;;5034668;28;20543;-63
2023/08/08 12:30:54;;;;;;;1.93;1.70;;;21.90;88.90;;;;;;5024522;28;20476;-64
2023/08/08 12:33:21;;;;;;;1.83;1.60;;;21.80;90.80;;;;;;5037538;28;20444;-64
2023/08/08 12:35:48;;;;;;;1.37;1.27;;;21.80;87.80;;;;;;5029759;28;20497;-64
2023/08/08 12:38:15;;;;;;;1.70;1.60;;;21.80;89.20;;;;;;5036848;28;21034;-64
2023/08/08 12:40:42;;;;;;;2.03;1.53;;;21.90;88.20;;;;;;5037483;28;20573;-64
2023/08/08 12:43:10;;;;;;;2.00;1.90;;;21.90;86.80;;;;;;5034752;28;20455;-64
2023/08/08 12:45:37;;;;;;;1.80;1.70;;;21.80;85.00;;;;;;5030298;28;20536;-65
2023/08/08 12:48:06;;;;;;;2.03;1.70;;;21.80;90.00;;;;;;5035783;28;20812;-64
2023/08/08 12:50:33;;;;;;;1.97;1.87;;;21.70;86.40;;;;;;5032322;28;20548;-64